Time;durP1;ratioP1;P1;durP2;ratioP2;P2;SDS_P1;SDS_P2;PMS_P1;PMS_P2;Temp;Humidity;BMP_temperature;BMP_pressure;BME280_temperature;BME280_humidity;BME280_pressure;Samples;Min_cycle;Max_cycle;Signal;HPM_P1;HPM_P2
2023/07/28 00:01:23;;;;;;;0.40;0.40;;;;;;;17.73;93.79;100002.06;5165312;28;20041;-88
2023/07/28 00:04:13;;;;;;;0.25;0.25;;;;;;;17.67;94.28;99998.97;5159493;28;20034;-85
2023/07/28 00:07:05;;;;;;;0.73;0.73;;;;;;;17.69;94.43;100000.53;5189602;28;20070;-87
2023/07/28 00:09:56;;;;;;;1.60;0.65;;;;;;;17.69;94.35;100005.84;5165193;28;20038;-88
2023/07/28 00:12:46;;;;;;;0.30;0.30;;;;;;;17.74;94.20;100000.22;5176843;28;20034;-87
2023/07/28 00:15:37;;;;;;;0.20;0.20;;;;;;;17.65;95.01;99998.22;5165338;28;20033;-86
2023/07/28 00:18:28;;;;;;;0.20;0.20;;;;;;;17.71;94.71;100003.13;5166358;28;20030;-86
2023/07/28 00:21:19;;;;;;;0.30;0.30;;;;;;;17.72;94.58;100004.81;5165465;28;20037;-87
2023/07/28 00:24:09;;;;;;;1.10;0.95;;;;;;;17.77;94.18;100000.88;5160108;28;20101;-86
2023/07/28 00:27:00;;;;;;;0.20;0.20;;;;;;;17.76;94.53;99998.34;5178721;28;20032;-86
2023/07/28 00:29:51;;;;;;;0.20;0.20;;;;;;;17.81;93.69;99998.84;5174001;28;20497;-87
2023/07/28 00:32:42;;;;;;;0.85;0.50;;;;;;;17.78;93.97;99993.78;5173867;28;20040;-87
2023/07/28 00:35:32;;;;;;;3.70;1.67;;;;;;;17.72;94.78;99994.22;5171941;28;20033;-87
2023/07/28 00:38:23;;;;;;;0.20;0.20;;;;;;;17.71;94.98;99992.50;5174617;28;20036;-87
2023/07/28 00:41:14;;;;;;;0.63;0.63;;;;;;;17.72;94.84;99992.38;5168150;28;20046;-87
2023/07/28 00:44:05;;;;;;;0.30;0.30;;;;;;;17.82;94.16;99991.75;5168327;28;20034;-87
2023/07/28 00:46:56;;;;;;;0.30;0.30;;;;;;;17.78;94.30;99991.97;5183589;28;20102;-87
2023/07/28 00:49:47;;;;;;;0.20;0.20;;;;;;;17.85;94.07;99991.56;5165497;28;20041;-87
2023/07/28 00:52:38;;;;;;;0.43;0.43;;;;;;;17.80;94.56;99991.00;5170433;28;20091;-87
2023/07/28 00:55:29;;;;;;;0.20;0.20;;;;;;;17.81;94.76;99990.91;5189945;28;20049;-87
2023/07/28 00:58:20;;;;;;;0.20;0.20;;;;;;;17.77;94.84;99990.25;5165758;28;20034;-86
2023/07/28 01:01:11;;;;;;;0.20;0.20;;;;;;;17.85;94.07;99994.22;5174531;28;20046;-87
2023/07/28 01:04:02;;;;;;;0.40;0.40;;;;;;;17.84;94.72;99995.16;5174176;28;20092;-86
2023/07/28 01:07:02;;;;;;;0.28;0.28;;;;;;;17.89;94.69;99993.88;5162180;28;20022;-86
2023/07/28 01:10:01;;;;;;;0.20;0.20;;;;;;;17.84;94.91;99989.84;5172935;28;20088;-84
2023/07/28 01:12:52;;;;;;;0.20;0.20;;;;;;;17.77;95.97;99990.25;5172643;28;20086;-86
2023/07/28 01:15:42;;;;;;;0.20;0.20;;;;;;;17.79;96.51;99987.53;5167763;28;20398;-87
2023/07/28 01:18:33;;;;;;;0.40;0.40;;;;;;;17.78;96.74;99986.66;5166361;28;20030;-87
2023/07/28 01:21:32;;;;;;;0.22;0.22;;;;;;;17.73;97.41;99983.47;5162574;28;20049;-87
2023/07/28 01:24:51;;;;;;;0.20;0.20;;;;;;;17.70;97.77;99978.38;5177060;28;20038;-85
2023/07/28 01:27:43;;;;;;;0.20;0.20;;;;;;;17.67;98.35;99983.03;5182733;28;20158;-86
2023/07/28 01:30:34;;;;;;;0.30;0.30;;;;;;;17.65;98.79;99977.00;5182496;28;20045;-88
2023/07/28 01:33:25;;;;;;;1.58;1.48;;;;;;;17.70;98.45;99988.16;5183046;28;20034;-87
2023/07/28 01:36:16;;;;;;;0.32;0.32;;;;;;;17.70;98.30;99977.53;5166573;28;20464;-86
2023/07/28 01:39:06;;;;;;;0.30;0.25;;;;;;;17.72;97.52;99983.59;5183017;28;20101;-86
2023/07/28 01:41:58;;;;;;;0.50;0.50;;;;;;;17.61;99.27;99990.47;5159162;28;20129;-87
2023/07/28 01:44:49;;;;;;;0.20;0.20;;;;;;;17.63;99.38;99982.41;5161274;28;20741;-86
2023/07/28 01:47:40;;;;;;;0.20;0.20;;;;;;;17.70;99.03;99985.50;5177984;28;20038;-88
2023/07/28 01:50:31;;;;;;;0.47;0.47;;;;;;;17.73;98.61;99982.63;5162342;28;20025;-86
2023/07/28 01:53:22;;;;;;;0.35;0.35;;;;;;;17.65;99.70;99980.50;5178707;28;20125;-87
2023/07/28 01:56:13;;;;;;;0.30;0.30;;;;;;;17.68;99.16;99977.66;5170804;28;20034;-86
2023/07/28 01:59:03;;;;;;;0.20;0.20;;;;;;;17.74;98.21;99976.34;5160581;28;20073;-87
2023/07/28 02:01:54;;;;;;;0.20;0.20;;;;;;;17.69;99.32;99981.16;5167402;28;20311;-86
2023/07/28 02:04:46;;;;;;;1.55;0.60;;;;;;;17.67;99.59;99975.09;5173118;28;20035;-87
2023/07/28 02:07:36;;;;;;;0.40;0.40;;;;;;;17.68;99.36;99969.69;5161950;28;20038;-88
2023/07/28 02:10:28;;;;;;;0.32;0.32;;;;;;;17.72;98.48;99976.47;5189875;28;20095;-87
2023/07/28 02:13:19;;;;;;;0.20;0.20;;;;;;;17.66;99.76;99973.38;5178778;28;20037;-87
2023/07/28 02:16:10;;;;;;;0.30;0.30;;;;;;;17.64;100.00;99975.31;5159974;28;20045;-87
2023/07/28 02:19:00;;;;;;;0.25;0.25;;;;;;;17.72;98.67;99979.13;5175311;28;20042;-86
2023/07/28 02:21:51;;;;;;;0.35;0.35;;;;;;;17.68;99.63;99980.31;5162973;28;20657;-87
2023/07/28 02:24:42;;;;;;;0.60;0.60;;;;;;;17.70;99.87;99980.19;5171351;28;20087;-87
2023/07/28 02:27:33;;;;;;;0.70;0.70;;;;;;;17.73;99.95;99977.31;5172535;28;20065;-87
2023/07/28 02:30:24;;;;;;;0.30;0.30;;;;;;;17.70;99.68;99983.69;5162081;28;20034;-86
2023/07/28 02:33:14;;;;;;;0.30;0.30;;;;;;;17.69;100.00;99976.66;5172717;28;20037;-86
2023/07/28 02:36:05;;;;;;;0.50;0.50;;;;;;;17.61;100.00;99979.88;5185653;28;20034;-87
2023/07/28 02:38:56;;;;;;;1.23;1.05;;;;;;;17.56;100.00;99983.78;5163246;28;20128;-87
2023/07/28 02:41:47;;;;;;;0.20;0.20;;;;;;;17.61;100.00;99982.53;5176007;28;20042;-86
2023/07/28 02:44:38;;;;;;;0.20;0.20;;;;;;;17.63;100.00;99982.41;5170239;28;20048;-86
2023/07/28 02:47:29;;;;;;;0.70;0.70;;;;;;;17.64;100.00;99989.41;5184752;28;20027;-86
2023/07/28 02:50:20;;;;;;;0.38;0.38;;;;;;;17.70;99.77;99993.47;5187113;28;20048;-84
2023/07/28 02:53:11;;;;;;;0.30;0.30;;;;;;;17.77;99.64;99992.06;5174624;28;20034;-88
2023/07/28 02:56:01;;;;;;;0.30;0.30;;;;;;;17.74;99.85;99993.13;5177102;28;20445;-86
2023/07/28 02:58:52;;;;;;;0.40;0.40;;;;;;;17.70;100.00;99998.75;5166390;28;20041;-87
2023/07/28 03:01:43;;;;;;;0.45;0.45;;;;;;;17.65;100.00;100001.72;5186107;28;20161;-87
2023/07/28 03:04:34;;;;;;;0.20;0.20;;;;;;;17.68;100.00;99995.34;5170813;28;20571;-85
2023/07/28 03:07:25;;;;;;;1.27;1.17;;;;;;;17.71;100.00;100003.13;5172614;28;20037;-87
2023/07/28 03:10:18;;;;;;;0.70;0.70;;;;;;;17.75;100.00;100001.94;5180814;28;20407;-87
2023/07/28 03:13:09;;;;;;;;;;;;;;;17.73;100.00;100001.19;5190926;28;20038;-88
2023/07/28 03:16:00;;;;;;;0.30;0.30;;;;;;;17.68;100.00;100003.31;5170187;28;20293;-86
2023/07/28 03:18:50;;;;;;;0.32;0.32;;;;;;;17.78;100.00;100002.56;5175560;28;20494;-87
2023/07/28 03:21:41;;;;;;;0.20;0.20;;;;;;;17.77;100.00;100003.53;5164432;28;20051;-87
2023/07/28 03:24:32;;;;;;;0.30;0.30;;;;;;;17.68;100.00;100005.97;5162337;28;20070;-86
2023/07/28 03:27:23;;;;;;;0.35;0.35;;;;;;;17.76;100.00;100001.00;5162386;28;20035;-88
2023/07/28 03:30:14;;;;;;;0.20;0.20;;;;;;;17.68;100.00;100006.84;5163911;28;20057;-87
2023/07/28 03:33:04;;;;;;;0.20;0.20;;;;;;;17.74;100.00;100008.19;5185851;28;20368;-87
2023/07/28 03:35:55;;;;;;;6.55;1.75;;;;;;;17.66;100.00;100011.38;5173595;28;20050;-87
2023/07/28 03:38:46;;;;;;;0.20;0.20;;;;;;;17.59;100.00;99999.50;5177929;28;20032;-87
2023/07/28 03:41:37;;;;;;;0.30;0.30;;;;;;;17.68;100.00;100011.28;5165753;28;20053;-88
2023/07/28 03:44:28;;;;;;;0.20;0.20;;;;;;;17.67;100.00;100015.75;5164099;28;20778;-88
2023/07/28 03:47:19;;;;;;;0.20;0.20;;;;;;;17.74;100.00;100016.16;5160542;28;20026;-87
2023/07/28 03:50:10;;;;;;;0.20;0.20;;;;;;;17.67;100.00;100018.41;5176331;28;20049;-87
2023/07/28 03:53:01;;;;;;;0.55;0.32;;;;;;;17.69;100.00;100018.28;5174813;28;20027;-88
2023/07/28 03:55:52;;;;;;;0.65;0.65;;;;;;;17.72;100.00;100024.22;5166267;28;20053;-87
2023/07/28 03:58:42;;;;;;;0.70;0.52;;;;;;;17.75;100.00;100023.16;5167770;28;20018;-88
2023/07/28 04:01:33;;;;;;;0.22;0.22;;;;;;;17.73;100.00;100012.66;5159652;28;20137;-88
2023/07/28 04:04:24;;;;;;;0.47;0.47;;;;;;;17.84;100.00;100013.75;5182670;28;20049;-86
2023/07/28 04:07:15;;;;;;;1.75;0.40;;;;;;;17.77;100.00;100018.59;5185667;28;20060;-86
2023/07/28 04:10:06;;;;;;;7.13;1.77;;;;;;;17.80;100.00;100021.06;5188239;28;20128;-86
2023/07/28 04:12:57;;;;;;;0.10;0.10;;;;;;;17.74;100.00;100016.16;5177002;28;20027;-87
2023/07/28 04:15:47;;;;;;;0.38;0.38;;;;;;;17.74;100.00;100018.81;5163496;28;20034;-87
2023/07/28 04:18:38;;;;;;;0.20;0.20;;;;;;;17.69;100.00;100010.31;5175292;28;20033;-88
2023/07/28 04:21:29;;;;;;;3.47;1.17;;;;;;;17.71;100.00;100013.72;5176794;28;20030;-87
2023/07/28 04:24:20;;;;;;;0.25;0.25;;;;;;;17.72;100.00;100020.75;5182619;28;20073;-86
2023/07/28 04:27:11;;;;;;;0.20;0.20;;;;;;;17.75;100.00;100026.69;5171435;28;20038;-86
2023/07/28 04:30:02;;;;;;;0.65;0.65;;;;;;;17.72;100.00;100026.88;5167006;28;20447;-87
2023/07/28 04:32:52;;;;;;;0.30;0.30;;;;;;;17.73;100.00;100025.06;5170553;28;20038;-88
2023/07/28 04:35:43;;;;;;;0.40;0.40;;;;;;;17.85;100.00;100032.19;5170846;28;20113;-87
2023/07/28 04:38:34;;;;;;;0.15;0.15;;;;;;;17.77;100.00;100026.56;5177916;28;20073;-87
2023/07/28 04:41:25;;;;;;;0.20;0.20;;;;;;;17.83;100.00;100026.13;5164297;28;20038;-87
2023/07/28 04:44:16;;;;;;;0.20;0.20;;;;;;;17.87;100.00;100025.00;5162992;28;20073;-88
2023/07/28 04:47:07;;;;;;;0.22;0.22;;;;;;;17.89;100.00;100031.03;5176217;28;20037;-86
2023/07/28 04:49:58;;;;;;;0.20;0.20;;;;;;;17.88;100.00;100039.09;5156357;28;20030;-87
2023/07/28 04:52:49;;;;;;;0.40;0.40;;;;;;;17.83;100.00;100036.75;5176041;28;20033;-87
2023/07/28 04:55:39;;;;;;;0.40;0.40;;;;;;;17.82;100.00;100039.53;5163983;28;20037;-87
2023/07/28 04:58:30;;;;;;;0.20;0.20;;;;;;;17.85;100.00;100039.31;5164709;28;20036;-86
2023/07/28 05:01:21;;;;;;;0.20;0.20;;;;;;;17.90;100.00;100043.34;5176042;28;20041;-88
2023/07/28 05:04:12;;;;;;;0.40;0.40;;;;;;;17.92;100.00;100046.75;5160938;28;20098;-87
2023/07/28 05:07:04;;;;;;;0.38;0.38;;;;;;;17.92;100.00;100052.03;5176895;28;20043;-88
2023/07/28 05:09:54;;;;;;;0.30;0.30;;;;;;;17.88;100.00;100044.41;5170083;28;20042;-86
2023/07/28 05:12:45;;;;;;;0.20;0.20;;;;;;;17.89;100.00;100049.59;5171409;28;20605;-88
2023/07/28 05:15:36;;;;;;;0.22;0.22;;;;;;;17.88;100.00;100055.88;5171698;28;20033;-86
2023/07/28 05:18:27;;;;;;;0.20;0.20;;;;;;;17.91;100.00;100053.00;5176514;28;20030;-87
2023/07/28 05:21:18;;;;;;;0.32;0.32;;;;;;;17.89;100.00;100056.72;5163984;28;20092;-86
2023/07/28 05:24:09;;;;;;;0.20;0.20;;;;;;;17.88;100.00;100055.88;5171501;28;20088;-88
2023/07/28 05:26:59;;;;;;;0.20;0.20;;;;;;;17.91;100.00;100060.97;5164407;28;20034;-87
2023/07/28 05:29:50;;;;;;;0.20;0.20;;;;;;;17.90;100.00;100066.38;5159383;28;20197;-88
2023/07/28 05:32:41;;;;;;;0.20;0.20;;;;;;;17.91;100.00;100070.75;5169361;28;20088;-87
2023/07/28 05:35:32;;;;;;;0.40;0.40;;;;;;;17.88;100.00;100071.81;5176409;28;20538;-87
2023/07/28 05:38:22;;;;;;;0.20;0.20;;;;;;;17.91;100.00;100071.56;5165092;28;20051;-86
2023/07/28 05:41:13;;;;;;;0.28;0.28;;;;;;;17.92;100.00;100072.44;5162704;28;20341;-86
2023/07/28 05:44:04;;;;;;;0.20;0.20;;;;;;;17.95;100.00;100082.84;5182716;28;20121;-87
2023/07/28 05:46:55;;;;;;;0.40;0.40;;;;;;;17.99;100.00;100081.72;5159855;28;20026;-87
2023/07/28 05:49:46;;;;;;;0.20;0.20;;;;;;;17.97;100.00;100082.78;5162412;28;20127;-87
2023/07/28 05:52:37;;;;;;;0.28;0.28;;;;;;;18.05;100.00;100085.75;5162808;28;20113;-87
2023/07/28 05:55:28;;;;;;;0.30;0.30;;;;;;;18.01;100.00;100089.56;5174771;28;20065;-87
2023/07/28 05:58:18;;;;;;;4.22;1.38;;;;;;;18.05;100.00;100096.38;5164912;28;20022;-86
2023/07/28 06:01:09;;;;;;;0.30;0.30;;;;;;;18.06;100.00;100098.91;5153722;28;20044;-87
2023/07/28 06:04:00;;;;;;;0.20;0.20;;;;;;;18.05;100.00;100099.03;5158411;28;20037;-89
2023/07/28 06:06:51;;;;;;;4.80;1.80;;;;;;;18.04;100.00;100098.16;5157186;28;20382;-87
2023/07/28 06:09:42;;;;;;;0.20;0.20;;;;;;;18.05;100.00;100102.53;5156804;28;20025;-87
2023/07/28 06:12:34;;;;;;;0.20;0.20;;;;;;;18.04;100.00;100102.63;5155728;28;20046;-87
2023/07/28 06:15:24;;;;;;;0.30;0.30;;;;;;;18.02;100.00;100091.25;5168648;28;20036;-87
2023/07/28 06:18:16;;;;;;;0.20;0.20;;;;;;;18.13;100.00;100103.78;5172637;28;20029;-87
2023/07/28 06:21:07;;;;;;;0.73;0.30;;;;;;;18.13;100.00;100099.34;5169559;28;20054;-86
2023/07/28 06:23:58;;;;;;;0.35;0.35;;;;;;;18.13;100.00;100107.31;5171017;28;20052;-85
2023/07/28 06:26:50;;;;;;;0.63;0.63;;;;;;;18.21;100.00;100110.28;5156672;28;20410;-86
2023/07/28 06:29:41;;;;;;;0.35;0.35;;;;;;;18.13;100.00;100112.63;5164680;28;20517;-86
2023/07/28 06:32:31;;;;;;;0.45;0.40;;;;;;;18.12;100.00;100118.88;5157267;28;20092;-84
2023/07/28 06:35:22;;;;;;;0.35;0.35;;;;;;;18.09;100.00;100119.94;5152443;28;20030;-87
2023/07/28 06:38:13;;;;;;;0.20;0.20;;;;;;;18.20;100.00;100123.66;5155920;28;20030;-85
2023/07/28 06:41:04;;;;;;;0.28;0.28;;;;;;;18.20;100.00;100124.53;5180540;28;20030;-85
2023/07/28 06:43:55;;;;;;;0.55;0.47;;;;;;;18.19;100.00;100130.78;5159103;28;20026;-86
2023/07/28 06:46:46;;;;;;;0.30;0.30;;;;;;;18.17;100.00;100135.34;5156886;28;20054;-85
2023/07/28 06:49:37;;;;;;;0.40;0.40;;;;;;;18.21;100.00;100142.16;5172983;28;20039;-85
2023/07/28 06:52:28;;;;;;;1.23;0.88;;;;;;;18.19;100.00;100135.22;5169598;28;20460;-85
2023/07/28 06:55:21;;;;;;;0.40;0.40;;;;;;;18.20;100.00;100140.44;5153270;28;20042;-85
2023/07/28 06:58:12;;;;;;;0.30;0.30;;;;;;;18.23;100.00;100145.53;5168362;28;20546;-86
2023/07/28 07:01:03;;;;;;;0.38;0.38;;;;;;;18.28;100.00;100147.88;5169236;28;20068;-85
2023/07/28 07:03:53;;;;;;;0.20;0.20;;;;;;;18.22;100.00;100151.78;5156348;28;20419;-84
2023/07/28 07:06:45;;;;;;;0.30;0.30;;;;;;;18.29;100.00;100148.75;5160098;28;20026;-85
2023/07/28 07:09:36;;;;;;;0.30;0.30;;;;;;;18.28;100.00;100160.31;5167961;28;20052;-86
2023/07/28 07:12:27;;;;;;;0.95;0.95;;;;;;;18.27;100.00;100155.97;5174143;28;20030;-86
2023/07/28 07:15:17;;;;;;;0.40;0.40;;;;;;;18.23;100.00;100153.50;5176453;28;20058;-87
2023/07/28 07:18:08;;;;;;;0.57;0.57;;;;;;;18.22;100.00;100154.44;5158583;28;20537;-87
2023/07/28 07:21:03;;;;;;;2.08;0.77;;;;;;;18.36;100.00;100160.63;5159154;28;20038;-86
2023/07/28 07:23:53;;;;;;;0.35;0.35;;;;;;;18.28;100.00;100157.66;5172544;28;20129;-86
2023/07/28 07:26:45;;;;;;;0.30;0.30;;;;;;;18.32;100.00;100156.47;5159039;28;20108;-86
2023/07/28 07:29:35;;;;;;;2.05;1.58;;;;;;;18.40;100.00;100156.81;5170331;28;20478;-86
2023/07/28 07:32:26;;;;;;;0.30;0.30;;;;;;;18.39;100.00;100160.41;5181026;28;20029;-85
2023/07/28 07:35:17;;;;;;;0.45;0.45;;;;;;;18.39;100.00;100165.72;5195604;28;20069;-84
2023/07/28 07:38:09;;;;;;;0.30;0.30;;;;;;;18.41;100.00;100163.81;5191262;28;20034;-85
2023/07/28 07:41:01;;;;;;;0.30;0.30;;;;;;;18.42;100.00;100167.34;5168135;28;20034;-86
2023/07/28 07:43:54;;;;;;;2.45;1.05;;;;;;;18.36;100.00;100171.25;5169684;28;20042;-86
2023/07/28 07:46:45;;;;;;;0.38;0.38;;;;;;;18.52;100.00;100168.38;5171499;28;20038;-84
2023/07/28 07:49:35;;;;;;;0.40;0.40;;;;;;;18.38;100.00;100179.97;5164437;28;20041;-85
2023/07/28 07:52:26;;;;;;;2.95;1.23;;;;;;;18.41;100.00;100179.75;5159580;28;20026;-85
2023/07/28 07:55:17;;;;;;;0.40;0.40;;;;;;;18.43;100.00;100182.31;5160498;28;20043;-85
2023/07/28 07:58:08;;;;;;;0.40;0.40;;;;;;;18.42;100.00;100188.59;5166812;28;20237;-86
2023/07/28 08:00:59;;;;;;;1.35;1.25;;;;;;;18.56;100.00;100188.47;5176341;28;20034;-86
2023/07/28 08:03:49;;;;;;;0.25;0.25;;;;;;;18.49;100.00;100189.88;5166695;28;20030;-86
2023/07/28 08:06:40;;;;;;;0.52;0.52;;;;;;;18.40;100.00;100186.00;5161507;28;20052;-86
2023/07/28 08:09:31;;;;;;;0.52;0.52;;;;;;;18.45;100.00;100189.22;5172552;28;20041;-86
2023/07/28 08:12:22;;;;;;;0.52;0.52;;;;;;;18.51;100.00;100191.44;5164282;28;20454;-85
2023/07/28 08:15:13;;;;;;;0.30;0.30;;;;;;;18.55;100.00;100195.59;5173843;28;20038;-84
2023/07/28 08:18:04;;;;;;;1.20;0.85;;;;;;;18.64;100.00;100190.59;5186871;28;20292;-86
2023/07/28 08:20:54;;;;;;;0.30;0.30;;;;;;;18.62;100.00;100196.00;5186575;28;20069;-85
2023/07/28 08:23:45;;;;;;;0.20;0.20;;;;;;;18.67;100.00;100201.00;5157749;28;20045;-83
2023/07/28 08:26:36;;;;;;;0.20;0.20;;;;;;;18.70;100.00;100195.50;5160898;28;20122;-85
2023/07/28 08:29:27;;;;;;;0.82;0.80;;;;;;;18.78;100.00;100195.81;5158381;28;20031;-86
2023/07/28 08:32:18;;;;;;;0.57;0.57;;;;;;;18.77;100.00;100195.91;5167810;28;20029;-86
2023/07/28 08:35:09;;;;;;;1.20;0.90;;;;;;;18.87;100.00;100191.66;5155289;28;20502;-87
2023/07/28 08:38:00;;;;;;;0.35;0.35;;;;;;;18.88;99.62;100199.50;5166577;28;20026;-86
2023/07/28 08:40:51;;;;;;;0.32;0.32;;;;;;;18.95;99.19;100186.66;5156141;28;20034;-86
2023/07/28 08:43:42;;;;;;;0.20;0.20;;;;;;;19.01;98.98;100194.19;5160961;28;20033;-85
2023/07/28 08:46:35;;;;;;;0.85;0.73;;;;;;;19.11;98.63;100196.22;5176632;28;20042;-85
2023/07/28 08:49:31;;;;;;;0.40;0.40;;;;;;;19.18;98.38;100190.34;5160141;28;20049;-86
2023/07/28 08:52:22;;;;;;;0.40;0.40;;;;;;;19.28;98.67;100189.69;5162195;28;20405;-85
2023/07/28 08:55:13;;;;;;;0.20;0.20;;;;;;;19.34;98.73;100195.41;5173439;28;20062;-85
2023/07/28 08:58:20;;;;;;;1.38;0.60;;;;;;;19.45;96.93;100196.44;5198655;28;20037;-85
2023/07/28 09:01:12;;;;;;;0.20;0.20;;;;;;;19.45;96.05;100207.06;5180901;28;20026;-84
2023/07/28 09:04:10;;;;;;;0.82;0.82;;;;;;;19.49;96.04;100209.41;5199730;28;20038;-84
2023/07/28 09:07:04;;;;;;;0.20;0.20;;;;;;;19.49;95.96;100203.25;5211235;28;20045;-84
2023/07/28 09:10:00;;;;;;;0.20;0.20;;;;;;;19.56;95.53;100219.59;5184818;28;20026;-85
2023/07/28 09:12:51;;;;;;;0.70;0.70;;;;;;;19.56;93.80;100220.47;5197296;28;20493;-84
2023/07/28 09:15:42;;;;;;;0.20;0.20;;;;;;;19.65;93.34;100213.59;5185906;28;20094;-86
2023/07/28 09:18:33;;;;;;;0.40;0.40;;;;;;;19.76;93.42;100211.00;5171806;28;20026;-86
2023/07/28 09:21:24;;;;;;;0.28;0.28;;;;;;;19.77;92.87;100212.72;5166529;28;20046;-86
2023/07/28 09:24:15;;;;;;;0.30;0.30;;;;;;;19.84;93.61;100212.25;5174653;28;20041;-85
2023/07/28 09:27:06;;;;;;;0.40;0.40;;;;;;;19.97;93.40;100202.41;5159947;28;20046;-86
2023/07/28 09:29:57;;;;;;;0.20;0.20;;;;;;;20.01;92.63;100209.22;5181116;28;20030;-85
2023/07/28 09:32:50;;;;;;;0.20;0.20;;;;;;;20.14;90.76;100211.81;5160516;28;20017;-87
2023/07/28 09:35:49;;;;;;;0.70;0.70;;;;;;;20.20;91.29;100213.16;5160972;28;20036;-86
2023/07/28 09:38:41;;;;;;;0.20;0.20;;;;;;;20.24;91.45;100203.97;5160799;28;20500;-87
2023/07/28 09:41:34;;;;;;;0.20;0.20;;;;;;;20.29;91.17;100209.78;5152727;28;20084;-86
2023/07/28 09:44:25;;;;;;;0.35;0.35;;;;;;;20.29;89.34;100207.09;5162091;28;20033;-85
2023/07/28 09:47:16;;;;;;;0.30;0.30;;;;;;;20.28;89.04;100203.59;5178814;28;20030;-86
2023/07/28 09:50:10;;;;;;;0.68;0.50;;;;;;;20.32;89.29;100208.72;5173647;28;20143;-86
2023/07/28 09:53:04;;;;;;;0.10;0.10;;;;;;;20.24;89.64;100220.81;5180954;28;20322;-85
2023/07/28 09:55:58;;;;;;;0.20;0.20;;;;;;;20.24;90.05;100222.59;5178054;28;20057;-85
2023/07/28 09:58:51;;;;;;;0.20;0.20;;;;;;;20.33;91.43;100213.91;5163828;28;20486;-86
2023/07/28 10:01:44;;;;;;;0.28;0.28;;;;;;;20.42;91.78;100218.53;5173351;28;20425;-85
2023/07/28 10:04:35;;;;;;;;;;;;;;;20.47;91.17;100215.53;5156472;28;20491;-86
2023/07/28 10:07:28;;;;;;;0.20;0.20;;;;;;;20.52;90.71;100217.84;5173300;28;20374;-87
2023/07/28 10:10:19;;;;;;;0.40;0.40;;;;;;;20.47;91.18;100214.66;5169997;28;20038;-85
2023/07/28 10:13:19;;;;;;;0.57;0.57;;;;;;;20.33;90.68;100213.91;5161338;28;20033;-86
2023/07/28 10:16:10;;;;;;;0.73;0.63;;;;;;;20.42;90.47;100223.00;5155610;28;20053;-86
2023/07/28 10:19:03;;;;;;;0.82;0.35;;;;;;;20.50;90.21;100219.75;5159522;28;20049;-86
2023/07/28 10:22:02;;;;;;;0.30;0.30;;;;;;;20.56;90.48;100219.28;5163886;28;20746;-87
2023/07/28 10:24:53;;;;;;;0.40;0.40;;;;;;;20.72;90.67;100218.94;5169738;28;20417;-86
2023/07/28 10:27:46;;;;;;;9.82;0.40;;;;;;;20.77;90.49;100221.28;5157445;28;20607;-86
2023/07/28 10:30:50;;;;;;;0.90;0.40;;;;;;;20.71;89.20;100214.59;5165605;28;20125;-85
2023/07/28 10:33:44;;;;;;;0.52;0.52;;;;;;;20.75;90.12;100219.59;5156557;28;20129;-87
2023/07/28 10:36:35;;;;;;;0.20;0.20;;;;;;;20.86;90.08;100225.91;5182913;28;20476;-87
2023/07/28 10:39:26;;;;;;;0.20;0.20;;;;;;;20.75;89.07;100230.25;5164260;28;20038;-86
2023/07/28 10:42:17;;;;;;;0.50;0.50;;;;;;;20.78;89.51;100217.66;5174069;28;20104;-86
2023/07/28 10:45:09;;;;;;;0.30;0.30;;;;;;;20.78;89.46;100231.00;5176735;28;20321;-88
2023/07/28 10:48:00;;;;;;;0.40;0.40;;;;;;;20.85;89.70;100229.53;5152580;28;20723;-85
2023/07/28 10:50:51;;;;;;;0.40;0.40;;;;;;;20.85;89.66;100226.88;5168382;28;20041;-86
2023/07/28 10:53:43;;;;;;;0.30;0.30;;;;;;;21.02;89.10;100226.41;5164669;28;20575;-87
2023/07/28 10:56:34;;;;;;;0.30;0.30;;;;;;;20.95;88.37;100222.50;5165130;28;20036;-87
2023/07/28 10:59:24;;;;;;;1.55;0.40;;;;;;;21.05;89.07;100225.31;5170111;28;20031;-86
2023/07/28 11:02:15;;;;;;;0.20;0.20;;;;;;;21.23;87.89;100217.66;5153961;28;20089;-85
2023/07/28 11:05:12;;;;;;;0.32;0.30;;;;;;;21.27;86.99;100227.13;5171519;28;20630;-87
2023/07/28 11:08:03;;;;;;;0.20;0.20;;;;;;;21.36;86.36;100220.19;5169500;28;20036;-87
2023/07/28 11:10:54;;;;;;;0.50;0.50;;;;;;;21.44;85.95;100219.56;5157964;28;20033;-86
2023/07/28 11:13:45;;;;;;;0.20;0.20;;;;;;;21.38;84.97;100213.72;5156559;28;20117;-86
2023/07/28 11:16:38;;;;;;;0.35;0.28;;;;;;;21.63;87.95;100221.63;5160220;28;20787;-87
2023/07/28 11:19:29;;;;;;;0.20;0.20;;;;;;;21.67;86.16;100223.03;5159278;28;20034;-86
2023/07/28 11:22:20;;;;;;;0.20;0.20;;;;;;;21.58;85.22;100219.31;5173978;28;20034;-87
2023/07/28 11:25:11;;;;;;;0.20;0.20;;;;;;;21.74;85.76;100212.72;5155806;28;20044;-87
2023/07/28 11:28:06;;;;;;;0.30;0.30;;;;;;;21.89;85.36;100214.13;5169153;28;20048;-85
2023/07/28 11:30:58;;;;;;;0.20;0.20;;;;;;;21.68;80.72;100217.59;5171843;28;20045;-86
2023/07/28 11:33:49;;;;;;;0.30;0.30;;;;;;;21.65;80.87;100215.16;5178631;28;20124;-87
2023/07/28 11:36:41;;;;;;;0.20;0.20;;;;;;;21.62;80.97;100218.06;5171396;28;20018;-86
2023/07/28 11:39:32;;;;;;;0.30;0.30;;;;;;;21.67;81.21;100221.25;5168855;28;20082;-87
2023/07/28 11:42:23;;;;;;;0.20;0.20;;;;;;;21.62;81.93;100226.09;5173912;28;20582;-91
2023/07/28 11:45:15;;;;;;;0.50;0.50;;;;;;;21.71;82.64;100227.16;5188931;28;20707;-85
2023/07/28 11:48:07;;;;;;;0.40;0.40;;;;;;;21.60;84.71;100229.84;5167242;28;20160;-86
2023/07/28 11:50:57;;;;;;;0.30;0.30;;;;;;;21.75;85.85;100222.44;5169621;28;20034;-85
2023/07/28 11:53:48;;;;;;;0.30;0.30;;;;;;;21.80;86.82;100230.91;5183442;28;20045;-87
2023/07/28 11:56:44;;;;;;;0.20;0.20;;;;;;;21.72;87.25;100230.69;5179308;28;20022;-89
2023/07/28 11:59:35;;;;;;;0.20;0.20;;;;;;;21.82;86.77;100223.63;5174533;28;20026;-88
2023/07/28 12:02:27;;;;;;;0.38;0.38;;;;;;;21.81;88.02;100224.59;5181975;28;20057;-88
2023/07/28 12:05:18;;;;;;;0.20;0.20;;;;;;;21.83;88.81;100219.97;5198289;28;20104;-88
2023/07/28 12:08:09;;;;;;;0.20;0.20;;;;;;;21.70;88.67;100226.31;5187924;28;20489;-89
2023/07/28 12:11:00;;;;;;;0.22;0.22;;;;;;;21.77;87.03;100228.50;5182030;28;20097;-87
2023/07/28 12:13:51;;;;;;;0.20;0.20;;;;;;;21.69;86.33;100232.63;5165120;28;20128;-87
2023/07/28 12:16:47;;;;;;;0.52;0.52;;;;;;;21.66;85.90;100229.34;5158409;28;20092;-86
2023/07/28 12:20:01;;;;;;;0.20;0.20;;;;;;;21.73;85.96;100235.91;5168839;28;20518;-87
2023/07/28 12:22:52;;;;;;;0.20;0.20;;;;;;;21.81;87.31;100221.91;5167159;28;20512;-86
2023/07/28 12:25:44;;;;;;;0.20;0.20;;;;;;;21.89;86.66;100227.47;5171764;28;20035;-85
2023/07/28 12:28:34;;;;;;;0.10;0.10;;;;;;;21.94;86.85;100227.09;5166879;28;20029;-85
2023/07/28 12:31:25;;;;;;;0.20;0.20;;;;;;;21.97;85.97;100224.16;5170621;28;20034;-84
2023/07/28 12:34:16;;;;;;;0.20;0.20;;;;;;;21.98;85.34;100229.38;5154978;28;20521;-85
2023/07/28 12:37:07;;;;;;;0.20;0.20;;;;;;;21.92;86.21;100232.56;5186644;28;20034;-85
2023/07/28 12:39:58;;;;;;;0.22;0.22;;;;;;;22.01;87.23;100225.59;5168950;28;20030;-85
2023/07/28 12:42:48;;;;;;;0.30;0.30;;;;;;;22.05;86.90;100226.19;5183966;28;20479;-84
2023/07/28 12:45:39;;;;;;;0.40;0.40;;;;;;;22.05;86.16;100234.19;5173188;28;20126;-85
2023/07/28 12:48:30;;;;;;;3.40;0.52;;;;;;;22.04;86.49;100232.50;5172792;28;20525;-84
2023/07/28 12:51:21;;;;;;;0.22;0.22;;;;;;;22.14;85.55;100233.44;5174220;28;20042;-86
2023/07/28 12:54:12;;;;;;;0.40;0.40;;;;;;;22.10;85.01;100240.84;5155772;28;20042;-85
2023/07/28 12:57:03;;;;;;;0.60;0.60;;;;;;;22.17;85.00;100243.88;5176960;28;20026;-85
2023/07/28 12:59:54;;;;;;;0.57;0.45;;;;;;;22.09;84.56;100241.00;5158552;28;20034;-85
2023/07/28 13:02:45;;;;;;;0.30;0.30;;;;;;;22.13;84.73;100242.41;5174585;28;20096;-85
2023/07/28 13:05:36;;;;;;;0.45;0.45;;;;;;;22.09;84.31;100246.34;5168347;28;20041;-85
2023/07/28 13:08:27;;;;;;;0.10;0.10;;;;;;;22.14;85.73;100241.44;5171167;28;20030;-85
2023/07/28 13:11:18;;;;;;;0.20;0.20;;;;;;;22.40;86.12;100235.78;5159688;28;20042;-85
2023/07/28 13:14:09;;;;;;;0.10;0.10;;;;;;;22.39;85.09;100239.38;5163616;28;20042;-84
2023/07/28 13:17:00;;;;;;;0.40;0.40;;;;;;;22.62;84.80;100238.28;5169717;28;20025;-85